sensor_id;sensor_type;location;lat;lon;timestamp;pressure;altitude;pressure_sealevel;temperature;humidity
21182;BME280;10749;46.296;7.524;2023-01-27T00:00:12;94684.25;;;0.76;53.57
21182;BME280;10749;46.296;7.524;2023-01-27T00:02:38;94682.75;;;0.73;53.65
21182;BME280;10749;46.296;7.524;2023-01-27T00:05:04;94690.56;;;0.73;53.80
21182;BME280;10749;46.296;7.524;2023-01-27T00:07:29;94680.41;;;0.70;53.60
21182;BME280;10749;46.296;7.524;2023-01-27T00:09:55;94676.38;;;0.66;53.67
21182;BME280;10749;46.296;7.524;2023-01-27T00:12:23;94683.03;;;0.59;53.60
21182;BME280;10749;46.296;7.524;2023-01-27T00:15:10;94672.28;;;0.53;53.51
21182;BME280;10749;46.296;7.524;2023-01-27T00:17:36;94682.94;;;0.50;53.65
21182;BME280;10749;46.296;7.524;2023-01-27T00:20:02;94673.59;;;0.47;53.65
21182;BME280;10749;46.296;7.524;2023-01-27T00:22:28;94675.25;;;0.48;53.54
21182;BME280;10749;46.296;7.524;2023-01-27T00:25:11;94668.13;;;0.50;53.82
21182;BME280;10749;46.296;7.524;2023-01-27T00:27:37;94668.97;;;0.51;53.61
21182;BME280;10749;46.296;7.524;2023-01-27T00:30:05;94664.59;;;0.51;53.75
21182;BME280;10749;46.296;7.524;2023-01-27T00:32:30;94667.38;;;0.59;53.85
21182;BME280;10749;46.296;7.524;2023-01-27T00:35:15;94670.47;;;0.64;53.76
21182;BME280;10749;46.296;7.524;2023-01-27T00:37:41;94671.41;;;0.63;53.78
21182;BME280;10749;46.296;7.524;2023-01-27T00:40:07;94670.72;;;0.61;53.59
21182;BME280;10749;46.296;7.524;2023-01-27T00:42:32;94667.97;;;0.63;53.70
21182;BME280;10749;46.296;7.524;2023-01-27T00:44:57;94667.13;;;0.62;53.69
21182;BME280;10749;46.296;7.524;2023-01-27T00:47:41;94666.19;;;0.63;53.69
21182;BME280;10749;46.296;7.524;2023-01-27T00:50:08;94668.81;;;0.63;53.73
21182;BME280;10749;46.296;7.524;2023-01-27T00:52:33;94664.69;;;0.61;53.65
21182;BME280;10749;46.296;7.524;2023-01-27T00:54:58;94668.16;;;0.71;53.78
21182;BME280;10749;46.296;7.524;2023-01-27T00:57:24;94672.06;;;0.76;53.83
21182;BME280;10749;46.296;7.524;2023-01-27T00:59:49;94671.13;;;0.77;53.90
21182;BME280;10749;46.296;7.524;2023-01-27T01:02:15;94665.66;;;0.80;53.94
21182;BME280;10749;46.296;7.524;2023-01-27T01:04:40;94671.13;;;0.77;54.12
21182;BME280;10749;46.296;7.524;2023-01-27T01:07:05;94676.06;;;0.80;54.10
21182;BME280;10749;46.296;7.524;2023-01-27T01:09:30;94671.69;;;0.81;54.11
21182;BME280;10749;46.296;7.524;2023-01-27T01:11:56;94675.25;;;0.80;54.06
21182;BME280;10749;46.296;7.524;2023-01-27T01:14:21;94677.47;;;0.84;53.82
21182;BME280;10749;46.296;7.524;2023-01-27T01:16:46;94674.19;;;0.82;53.93
21182;BME280;10749;46.296;7.524;2023-01-27T01:19:12;94672.38;;;0.83;53.73
21182;BME280;10749;46.296;7.524;2023-01-27T01:21:37;94671.44;;;0.84;53.59
21182;BME280;10749;46.296;7.524;2023-01-27T01:24:02;94677.03;;;0.79;53.51
21182;BME280;10749;46.296;7.524;2023-01-27T01:26:27;94677.28;;;0.76;53.63
21182;BME280;10749;46.296;7.524;2023-01-27T01:28:53;94674.66;;;0.76;53.73
21182;BME280;10749;46.296;7.524;2023-01-27T01:31:19;94680.59;;;0.78;53.74
21182;BME280;10749;46.296;7.524;2023-01-27T01:33:46;94679.88;;;0.76;53.76
21182;BME280;10749;46.296;7.524;2023-01-27T01:36:17;94680.25;;;0.72;54.02
21182;BME280;10749;46.296;7.524;2023-01-27T01:38:43;94681.09;;;0.72;53.98
21182;BME280;10749;46.296;7.524;2023-01-27T01:41:11;94683.69;;;0.72;54.03
21182;BME280;10749;46.296;7.524;2023-01-27T01:43:37;94688.91;;;0.72;53.93
21182;BME280;10749;46.296;7.524;2023-01-27T01:46:02;94675.88;;;0.72;54.00
21182;BME280;10749;46.296;7.524;2023-01-27T01:48:42;94675.88;;;0.72;53.96
21182;BME280;10749;46.296;7.524;2023-01-27T01:51:15;94667.81;;;0.75;53.81
21182;BME280;10749;46.296;7.524;2023-01-27T01:56:17;94669.91;;;0.81;53.99
21182;BME280;10749;46.296;7.524;2023-01-27T01:58:45;94668.84;;;0.84;53.78
21182;BME280;10749;46.296;7.524;2023-01-27T02:01:14;94670.59;;;0.83;53.88
21182;BME280;10749;46.296;7.524;2023-01-27T02:03:41;94674.97;;;0.83;53.62
21182;BME280;10749;46.296;7.524;2023-01-27T02:06:09;94670.88;;;0.80;53.89
21182;BME280;10749;46.296;7.524;2023-01-27T02:08:38;94671.94;;;0.78;53.89
21182;BME280;10749;46.296;7.524;2023-01-27T02:11:05;94666.75;;;0.78;53.81
21182;BME280;10749;46.296;7.524;2023-01-27T02:13:31;94671.59;;;0.82;53.79
21182;BME280;10749;46.296;7.524;2023-01-27T02:15:56;94670.59;;;0.83;53.79
21182;BME280;10749;46.296;7.524;2023-01-27T02:18:22;94662.09;;;0.81;53.79
21182;BME280;10749;46.296;7.524;2023-01-27T02:20:52;94669.91;;;0.81;53.79
21182;BME280;10749;46.296;7.524;2023-01-27T02:26:32;94671.81;;;0.79;53.86
21182;BME280;10749;46.296;7.524;2023-01-27T02:29:11;94671.59;;;0.82;53.73
21182;BME280;10749;46.296;7.524;2023-01-27T02:31:37;94665.91;;;0.77;53.80
21182;BME280;10749;46.296;7.524;2023-01-27T02:34:08;94666.16;;;0.74;53.79
21182;BME280;10749;46.296;7.524;2023-01-27T02:36:42;94671.38;;;0.74;53.75
21182;BME280;10749;46.296;7.524;2023-01-27T02:39:11;94673.38;;;0.71;53.64
21182;BME280;10749;46.296;7.524;2023-01-27T02:41:40;94670.19;;;0.67;53.55
21182;BME280;10749;46.296;7.524;2023-01-27T02:44:07;94672.94;;;0.66;53.55
21182;BME280;10749;46.296;7.524;2023-01-27T02:46:34;94674.94;;;0.62;53.74
21182;BME280;10749;46.296;7.524;2023-01-27T02:49:00;94674.84;;;0.64;53.42
21182;BME280;10749;46.296;7.524;2023-01-27T02:51:25;94673.78;;;0.66;53.39
21182;BME280;10749;46.296;7.524;2023-01-27T02:53:50;94668.81;;;0.63;53.46
21182;BME280;10749;46.296;7.524;2023-01-27T02:56:16;94669.50;;;0.65;53.35
21182;BME280;10749;46.296;7.524;2023-01-27T02:58:41;94660.03;;;0.64;53.41
21182;BME280;10749;46.296;7.524;2023-01-27T03:01:07;94671.28;;;0.65;53.27
21182;BME280;10749;46.296;7.524;2023-01-27T03:03:32;94667.84;;;0.64;53.24
21182;BME280;10749;46.296;7.524;2023-01-27T03:05:58;94668.09;;;0.61;53.36
21182;BME280;10749;46.296;7.524;2023-01-27T03:08:23;94668.09;;;0.61;53.25
21182;BME280;10749;46.296;7.524;2023-01-27T03:10:50;94658.91;;;0.57;53.35
21182;BME280;10749;46.296;7.524;2023-01-27T03:13:20;94662.19;;;0.59;53.20
21182;BME280;10749;46.296;7.524;2023-01-27T03:15:45;94662.91;;;0.61;53.24
21182;BME280;10749;46.296;7.524;2023-01-27T03:18:29;94655.91;;;0.62;53.34
21182;BME280;10749;46.296;7.524;2023-01-27T03:21:00;94653.75;;;0.67;53.06
21182;BME280;10749;46.296;7.524;2023-01-27T03:23:25;94650.44;;;0.65;53.07
21182;BME280;10749;46.296;7.524;2023-01-27T03:25:51;94657.44;;;0.64;53.02
21182;BME280;10749;46.296;7.524;2023-01-27T03:28:17;94654.94;;;0.63;53.18
21182;BME280;10749;46.296;7.524;2023-01-27T03:30:42;94656.03;;;0.60;53.13
21182;BME280;10749;46.296;7.524;2023-01-27T03:33:07;94653.78;;;0.56;53.31
21182;BME280;10749;46.296;7.524;2023-01-27T03:35:34;94663.28;;;0.57;53.23
21182;BME280;10749;46.296;7.524;2023-01-27T03:38:05;94656.72;;;0.62;53.11
21182;BME280;10749;46.296;7.524;2023-01-27T03:40:50;94660.03;;;0.64;53.01
21182;BME280;10749;46.296;7.524;2023-01-27T03:43:34;94645.25;;;0.65;53.12
21182;BME280;10749;46.296;7.524;2023-01-27T03:46:19;94644.91;;;0.58;53.22
21182;BME280;10749;46.296;7.524;2023-01-27T03:48:49;94643.25;;;0.57;53.16
21182;BME280;10749;46.296;7.524;2023-01-27T03:51:15;94641.59;;;0.56;53.03
21182;BME280;10749;46.296;7.524;2023-01-27T03:53:40;94640.19;;;0.52;53.29
21182;BME280;10749;46.296;7.524;2023-01-27T03:56:06;94642.09;;;0.50;53.09
21182;BME280;10749;46.296;7.524;2023-01-27T03:58:34;94644.84;;;0.49;53.01
21182;BME280;10749;46.296;7.524;2023-01-27T04:03:33;94633.84;;;0.45;53.04
21182;BME280;10749;46.296;7.524;2023-01-27T04:06:20;94639.06;;;0.45;52.98
21182;BME280;10749;46.296;7.524;2023-01-27T04:09:05;94635.47;;;0.46;52.89
21182;BME280;10749;46.296;7.524;2023-01-27T04:11:31;94650.53;;;0.42;53.15
21182;BME280;10749;46.296;7.524;2023-01-27T04:14:15;94647.22;;;0.40;53.01
21182;BME280;10749;46.296;7.524;2023-01-27T04:16:41;94643.91;;;0.38;52.95
21182;BME280;10749;46.296;7.524;2023-01-27T04:19:08;94651.25;;;0.44;52.86
21182;BME280;10749;46.296;7.524;2023-01-27T04:21:34;94657.13;;;0.46;52.74
21182;BME280;10749;46.296;7.524;2023-01-27T04:24:00;94657.72;;;0.50;52.85
21182;BME280;10749;46.296;7.524;2023-01-27T04:26:26;94656.91;;;0.50;52.90
21182;BME280;10749;46.296;7.524;2023-01-27T04:28:58;94658.44;;;0.52;52.77
21182;BME280;10749;46.296;7.524;2023-01-27T04:31:23;94659.38;;;0.51;52.95
21182;BME280;10749;46.296;7.524;2023-01-27T04:33:49;94649.69;;;0.53;52.71
21182;BME280;10749;46.296;7.524;2023-01-27T04:36:14;94646.81;;;0.56;52.91
21182;BME280;10749;46.296;7.524;2023-01-27T04:38:40;94643.75;;;0.51;52.94
21182;BME280;10749;46.296;7.524;2023-01-27T04:41:05;94645.97;;;0.56;52.84
21182;BME280;10749;46.296;7.524;2023-01-27T04:43:30;94641.88;;;0.53;52.85
21182;BME280;10749;46.296;7.524;2023-01-27T04:45:56;94647.06;;;0.53;53.02
21182;BME280;10749;46.296;7.524;2023-01-27T04:48:21;94644.91;;;0.58;53.08
21182;BME280;10749;46.296;7.524;2023-01-27T04:50:46;94646.81;;;0.56;52.94
21182;BME280;10749;46.296;7.524;2023-01-27T04:53:12;94646.31;;;0.62;53.00
21182;BME280;10749;46.296;7.524;2023-01-27T04:55:37;94640.03;;;0.65;52.94
21182;BME280;10749;46.296;7.524;2023-01-27T04:58:03;94640.88;;;0.65;53.06
21182;BME280;10749;46.296;7.524;2023-01-27T05:00:29;94648.47;;;0.57;53.00
21182;BME280;10749;46.296;7.524;2023-01-27T05:02:54;94646.25;;;0.53;53.04
21182;BME280;10749;46.296;7.524;2023-01-27T05:05:19;94644.69;;;0.50;53.01
21182;BME280;10749;46.296;7.524;2023-01-27T05:07:44;94644.59;;;0.52;52.89
21182;BME280;10749;46.296;7.524;2023-01-27T05:10:10;94648.28;;;0.49;53.04
21182;BME280;10749;46.296;7.524;2023-01-27T05:12:36;94652.75;;;0.47;52.55
21182;BME280;10749;46.296;7.524;2023-01-27T05:15:01;94661.41;;;0.47;53.03
21182;BME280;10749;46.296;7.524;2023-01-27T05:17:32;94664.84;;;0.48;52.83
21182;BME280;10749;46.296;7.524;2023-01-27T05:19:58;94666.50;;;0.49;52.95
21182;BME280;10749;46.296;7.524;2023-01-27T05:22:23;94663.53;;;0.54;52.75
21182;BME280;10749;46.296;7.524;2023-01-27T05:24:48;94652.72;;;0.58;52.59
21182;BME280;10749;46.296;7.524;2023-01-27T05:27:15;94655.81;;;0.52;52.96
21182;BME280;10749;46.296;7.524;2023-01-27T05:29:40;94659.13;;;0.54;52.99
21182;BME280;10749;46.296;7.524;2023-01-27T05:32:05;94662.44;;;0.56;52.99
21182;BME280;10749;46.296;7.524;2023-01-27T05:34:31;94666.25;;;0.52;52.82
21182;BME280;10749;46.296;7.524;2023-01-27T05:36:56;94675.81;;;0.52;52.80
21182;BME280;10749;46.296;7.524;2023-01-27T05:39:21;94669.78;;;0.51;52.83
21182;BME280;10749;46.296;7.524;2023-01-27T05:41:46;94660.72;;;0.45;52.81
21182;BME280;10749;46.296;7.524;2023-01-27T05:44:12;94658.78;;;0.47;52.78
21182;BME280;10749;46.296;7.524;2023-01-27T05:46:39;94659.88;;;0.45;52.73
21182;BME280;10749;46.296;7.524;2023-01-27T05:49:04;94654.69;;;0.45;52.74
21182;BME280;10749;46.296;7.524;2023-01-27T05:51:35;94647.56;;;0.47;52.87
21182;BME280;10749;46.296;7.524;2023-01-27T05:54:02;94649.22;;;0.48;52.82
21182;BME280;10749;46.296;7.524;2023-01-27T05:56:27;94653.59;;;0.47;52.75
21182;BME280;10749;46.296;7.524;2023-01-27T05:58:54;94655.63;;;0.44;52.81
21182;BME280;10749;46.296;7.524;2023-01-27T06:01:22;94672.19;;;0.43;52.53
21182;BME280;10749;46.296;7.524;2023-01-27T06:03:48;94675.72;;;0.42;52.73
21182;BME280;10749;46.296;7.524;2023-01-27T06:06:17;94682.84;;;0.40;52.59
21182;BME280;10749;46.296;7.524;2023-01-27T06:08:42;94680.94;;;0.42;52.71
21182;BME280;10749;46.296;7.524;2023-01-27T06:11:08;94678.22;;;0.43;52.62
21182;BME280;10749;46.296;7.524;2023-01-27T06:13:34;94667.56;;;0.46;52.36
21182;BME280;10749;46.296;7.524;2023-01-27T06:16:01;94656.44;;;0.44;52.34
21182;BME280;10749;46.296;7.524;2023-01-27T06:18:27;94657.50;;;0.42;52.31
21182;BME280;10749;46.296;7.524;2023-01-27T06:20:56;94663.69;;;0.41;52.36
21182;BME280;10749;46.296;7.524;2023-01-27T06:23:22;94659.41;;;0.40;52.48
21182;BME280;10749;46.296;7.524;2023-01-27T06:25:47;94659.06;;;0.44;52.24
21182;BME280;10749;46.296;7.524;2023-01-27T06:28:14;94666.88;;;0.44;52.40
21182;BME280;10749;46.296;7.524;2023-01-27T06:30:40;94670.03;;;0.48;52.54
21182;BME280;10749;46.296;7.524;2023-01-27T06:33:06;94677.75;;;0.50;52.79
21182;BME280;10749;46.296;7.524;2023-01-27T06:35:33;94680.47;;;0.48;52.83
21182;BME280;10749;46.296;7.524;2023-01-27T06:37:59;94670.28;;;0.45;52.73
21182;BME280;10749;46.296;7.524;2023-01-27T06:40:26;94657.03;;;0.48;52.61
21182;BME280;10749;46.296;7.524;2023-01-27T06:42:52;94667.69;;;0.45;52.70
21182;BME280;10749;46.296;7.524;2023-01-27T06:45:18;94654.91;;;0.42;52.69
21182;BME280;10749;46.296;7.524;2023-01-27T06:47:43;94651.09;;;0.46;52.48
21182;BME280;10749;46.296;7.524;2023-01-27T06:50:09;94669.47;;;0.44;52.64
21182;BME280;10749;46.296;7.524;2023-01-27T06:52:35;94659.06;;;0.44;52.70
21182;BME280;10749;46.296;7.524;2023-01-27T06:55:01;94653.00;;;0.44;52.58
21182;BME280;10749;46.296;7.524;2023-01-27T06:57:27;94656.31;;;0.46;52.58
21182;BME280;10749;46.296;7.524;2023-01-27T06:59:52;94646.66;;;0.37;52.45
21182;BME280;10749;46.296;7.524;2023-01-27T07:02:18;94658.47;;;0.41;52.63
21182;BME280;10749;46.296;7.524;2023-01-27T07:04:43;94668.63;;;0.44;52.44
21182;BME280;10749;46.296;7.524;2023-01-27T07:07:08;94658.22;;;0.44;52.25
21182;BME280;10749;46.296;7.524;2023-01-27T07:09:34;94652.75;;;0.47;52.19
21182;BME280;10749;46.296;7.524;2023-01-27T07:11:59;94648.47;;;0.57;52.17
21182;BME280;10749;46.296;7.524;2023-01-27T07:14:24;94652.59;;;0.60;52.12
21182;BME280;10749;46.296;7.524;2023-01-27T07:16:50;94658.19;;;0.55;52.09
21182;BME280;10749;46.296;7.524;2023-01-27T07:19:15;94668.72;;;0.54;52.37
21182;BME280;10749;46.296;7.524;2023-01-27T07:21:41;94667.91;;;0.53;52.22
21182;BME280;10749;46.296;7.524;2023-01-27T07:24:06;94671.19;;;0.55;52.36
21182;BME280;10749;46.296;7.524;2023-01-27T07:26:31;94678.06;;;0.56;52.20
21182;BME280;10749;46.296;7.524;2023-01-27T07:28:57;94684.72;;;0.49;52.24
21182;BME280;10749;46.296;7.524;2023-01-27T07:31:22;94678.78;;;0.47;52.17
21182;BME280;10749;46.296;7.524;2023-01-27T07:33:48;94690.63;;;0.51;52.24
21182;BME280;10749;46.296;7.524;2023-01-27T07:36:13;94688.38;;;0.46;52.17
21182;BME280;10749;46.296;7.524;2023-01-27T07:38:38;94678.53;;;0.50;52.09
21182;BME280;10749;46.296;7.524;2023-01-27T07:41:04;94684.25;;;0.44;52.09
21182;BME280;10749;46.296;7.524;2023-01-27T07:43:30;94683.44;;;0.43;51.98
21182;BME280;10749;46.296;7.524;2023-01-27T07:45:56;94684.25;;;0.44;51.90
21182;BME280;10749;46.296;7.524;2023-01-27T07:48:21;94682.34;;;0.46;51.93
21182;BME280;10749;46.296;7.524;2023-01-27T07:50:47;94683.19;;;0.46;51.98
21182;BME280;10749;46.296;7.524;2023-01-27T07:53:12;94683.06;;;0.48;52.01
21182;BME280;10749;46.296;7.524;2023-01-27T07:55:37;94686.34;;;0.50;51.84
21182;BME280;10749;46.296;7.524;2023-01-27T07:58:03;94675.50;;;0.45;51.83
21182;BME280;10749;46.296;7.524;2023-01-27T08:00:28;94670.66;;;0.40;51.73
21182;BME280;10749;46.296;7.524;2023-01-27T08:02:55;94673.72;;;0.45;51.83
21182;BME280;10749;46.296;7.524;2023-01-27T08:05:21;94679.38;;;0.51;51.88
21182;BME280;10749;46.296;7.524;2023-01-27T08:07:50;94675.25;;;0.48;51.79
21182;BME280;10749;46.296;7.524;2023-01-27T08:10:16;94669.09;;;0.49;51.72
21182;BME280;10749;46.296;7.524;2023-01-27T08:12:42;94674.53;;;0.46;51.69
21182;BME280;10749;46.296;7.524;2023-01-27T08:15:08;94681.97;;;0.51;51.80
21182;BME280;10749;46.296;7.524;2023-01-27T08:17:34;94675.72;;;0.53;51.85
21182;BME280;10749;46.296;7.524;2023-01-27T08:19:59;94684.09;;;0.57;51.85
21182;BME280;10749;46.296;7.524;2023-01-27T08:22:24;94675.09;;;0.61;51.67
21182;BME280;10749;46.296;7.524;2023-01-27T08:24:51;94685.72;;;0.69;51.96
21182;BME280;10749;46.296;7.524;2023-01-27T08:27:17;94686.03;;;0.75;51.91
21182;BME280;10749;46.296;7.524;2023-01-27T08:29:42;94682.59;;;0.75;51.92
21182;BME280;10749;46.296;7.524;2023-01-27T08:32:08;94689.69;;;0.84;52.03
21182;BME280;10749;46.296;7.524;2023-01-27T08:34:34;94693.56;;;0.89;51.96
21182;BME280;10749;46.296;7.524;2023-01-27T08:37:00;94691.66;;;0.91;51.84
21182;BME280;10749;46.296;7.524;2023-01-27T08:39:25;94689.88;;;0.92;51.78
21182;BME280;10749;46.296;7.524;2023-01-27T08:41:50;94690.69;;;0.92;51.84
21182;BME280;10749;46.296;7.524;2023-01-27T08:44:16;94694.03;;;0.95;51.84
21182;BME280;10749;46.296;7.524;2023-01-27T08:46:41;94693.50;;;1.01;51.87
21182;BME280;10749;46.296;7.524;2023-01-27T08:49:07;94691.47;;;1.04;51.82
21182;BME280;10749;46.296;7.524;2023-01-27T08:51:33;94689.44;;;1.08;51.84
21182;BME280;10749;46.296;7.524;2023-01-27T08:53:58;94686.22;;;1.15;51.76
21182;BME280;10749;46.296;7.524;2023-01-27T08:56:23;94684.31;;;1.17;51.80
21182;BME280;10749;46.296;7.524;2023-01-27T08:58:49;94685.59;;;1.23;51.84
21182;BME280;10749;46.296;7.524;2023-01-27T09:01:17;94685.78;;;1.31;51.71
21182;BME280;10749;46.296;7.524;2023-01-27T09:03:42;94686.72;;;1.30;51.88
21182;BME280;10749;46.296;7.524;2023-01-27T09:06:10;94700.09;;;1.36;51.85
21182;BME280;10749;46.296;7.524;2023-01-27T09:08:36;94686.59;;;1.31;51.94
21182;BME280;10749;46.296;7.524;2023-01-27T09:11:10;94688.75;;;1.26;52.03
21182;BME280;10749;46.296;7.524;2023-01-27T09:13:36;94690.47;;;1.37;51.70
21182;BME280;10749;46.296;7.524;2023-01-27T09:16:01;94696.38;;;1.39;51.85
21182;BME280;10749;46.296;7.524;2023-01-27T09:18:26;94687.66;;;1.29;51.66
21182;BME280;10749;46.296;7.524;2023-01-27T09:20:52;94688.31;;;1.42;51.82
21182;BME280;10749;46.296;7.524;2023-01-27T09:23:17;94695.34;;;1.51;51.71
21182;BME280;10749;46.296;7.524;2023-01-27T09:25:42;94690.84;;;1.53;51.74
21182;BME280;10749;46.296;7.524;2023-01-27T09:28:07;94680.28;;;1.55;51.77
21182;BME280;10749;46.296;7.524;2023-01-27T09:30:44;94677.47;;;1.67;51.65
21182;BME280;10749;46.296;7.524;2023-01-27T09:33:11;94686.56;;;1.82;51.54
21182;BME280;10749;46.296;7.524;2023-01-27T09:35:42;94684.28;;;1.89;51.44
21182;BME280;10749;46.296;7.524;2023-01-27T09:38:11;94685.56;;;1.95;51.68
21182;BME280;10749;46.296;7.524;2023-01-27T09:40:54;94672.13;;;2.09;51.59
21182;BME280;10749;46.296;7.524;2023-01-27T09:44:02;94670.00;;;2.33;51.88
21182;BME280;10749;46.296;7.524;2023-01-27T09:53:06;94660.69;;;2.59;51.47
21182;BME280;10749;46.296;7.524;2023-01-27T09:55:48;94668.97;;;2.64;51.28
21182;BME280;10749;46.296;7.524;2023-01-27T10:06:24;94671.41;;;2.66;50.95
21182;BME280;10749;46.296;7.524;2023-01-27T10:11:48;94674.47;;;2.71;50.92
21182;BME280;10749;46.296;7.524;2023-01-27T10:14:38;94669.50;;;2.68;51.01
21182;BME280;10749;46.296;7.524;2023-01-27T10:20:27;94661.41;;;2.81;50.82
21182;BME280;10749;46.296;7.524;2023-01-27T10:26:22;94662.06;;;3.11;50.59
21182;BME280;10749;46.296;7.524;2023-01-27T10:29:07;94655.19;;;3.20;50.67
21182;BME280;10749;46.296;7.524;2023-01-27T10:32:15;94642.50;;;3.25;50.53
21182;BME280;10749;46.296;7.524;2023-01-27T10:34:38;94642.50;;;3.25;50.42
21182;BME280;10749;46.296;7.524;2023-01-27T10:37:34;94641.97;;;3.31;50.64
21182;BME280;10749;46.296;7.524;2023-01-27T10:39:59;94638.94;;;3.26;50.58
21182;BME280;10749;46.296;7.524;2023-01-27T10:42:51;94631.47;;;3.41;50.39
21182;BME280;10749;46.296;7.524;2023-01-27T10:45:37;94629.38;;;3.44;50.22
21182;BME280;10749;46.296;7.524;2023-01-27T10:48:28;94625.38;;;3.50;50.23
21182;BME280;10749;46.296;7.524;2023-01-27T10:54:13;94607.66;;;3.81;49.83
21182;BME280;10749;46.296;7.524;2023-01-27T10:56:48;94602.94;;;3.84;49.80
21182;BME280;10749;46.296;7.524;2023-01-27T10:59:37;94604.56;;;3.85;50.05
21182;BME280;10749;46.296;7.524;2023-01-27T11:05:07;94590.59;;;4.04;50.48
21182;BME280;10749;46.296;7.524;2023-01-27T11:07:42;94589.25;;;3.90;49.99
21182;BME280;10749;46.296;7.524;2023-01-27T11:10:20;94588.44;;;3.90;50.40
21182;BME280;10749;46.296;7.524;2023-01-27T11:12:48;94581.38;;;4.00;50.38
21182;BME280;10749;46.296;7.524;2023-01-27T11:15:20;94584.38;;;4.05;49.94
21182;BME280;10749;46.296;7.524;2023-01-27T11:17:52;94578.16;;;3.79;50.18
21182;BME280;10749;46.296;7.524;2023-01-27T11:20:28;94589.22;;;3.72;50.71
21182;BME280;10749;46.296;7.524;2023-01-27T11:23:18;94582.44;;;4.07;50.66
21182;BME280;10749;46.296;7.524;2023-01-27T11:26:17;94578.22;;;4.41;50.54
21182;BME280;10749;46.296;7.524;2023-01-27T11:37:20;94563.41;;;5.11;50.23
21182;BME280;10749;46.296;7.524;2023-01-27T11:39:46;94559.59;;;5.31;50.13
21182;BME280;10749;46.296;7.524;2023-01-27T11:42:12;94555.50;;;5.54;50.01
21182;BME280;10749;46.296;7.524;2023-01-27T11:44:38;94555.69;;;5.61;49.82
21182;BME280;10749;46.296;7.524;2023-01-27T11:47:06;94544.34;;;5.61;49.52
21182;BME280;10749;46.296;7.524;2023-01-27T11:49:43;94542.66;;;5.85;49.70
21182;BME280;10749;46.296;7.524;2023-01-27T11:52:14;94536.84;;;5.99;49.34
21182;BME280;10749;46.296;7.524;2023-01-27T11:54:47;94528.47;;;5.96;49.59
21182;BME280;10749;46.296;7.524;2023-01-27T11:57:18;94527.25;;;5.56;49.21
21182;BME280;10749;46.296;7.524;2023-01-27T11:59:45;94528.81;;;5.67;49.65
21182;BME280;10749;46.296;7.524;2023-01-27T12:02:29;94511.56;;;5.73;49.47
21182;BME280;10749;46.296;7.524;2023-01-27T12:05:12;94503.72;;;5.81;49.28
21182;BME280;10749;46.296;7.524;2023-01-27T12:10:38;94489.94;;;5.79;49.23
21182;BME280;10749;46.296;7.524;2023-01-27T12:13:15;94499.22;;;5.99;49.43
21182;BME280;10749;46.296;7.524;2023-01-27T12:15:53;94496.66;;;6.31;49.19
21182;BME280;10749;46.296;7.524;2023-01-27T12:18:20;94487.31;;;6.29;48.78
21182;BME280;10749;46.296;7.524;2023-01-27T12:20:55;94481.25;;;6.36;48.66
21182;BME280;10749;46.296;7.524;2023-01-27T12:23:28;94475.16;;;6.68;48.64
21182;BME280;10749;46.296;7.524;2023-01-27T12:25:57;94465.78;;;6.90;48.63
21182;BME280;10749;46.296;7.524;2023-01-27T12:28:48;94475.00;;;6.86;48.32
21182;BME280;10749;46.296;7.524;2023-01-27T12:31:21;94474.31;;;6.92;47.85
21182;BME280;10749;46.296;7.524;2023-01-27T12:33:58;94467.47;;;6.75;47.42
21182;BME280;10749;46.296;7.524;2023-01-27T12:36:24;94459.53;;;6.91;47.43
21182;BME280;10749;46.296;7.524;2023-01-27T12:38:52;94458.91;;;6.65;47.29
21182;BME280;10749;46.296;7.524;2023-01-27T12:41:26;94461.88;;;6.62;47.62
21182;BME280;10749;46.296;7.524;2023-01-27T12:43:56;94447.72;;;6.63;47.21
21182;BME280;10749;46.296;7.524;2023-01-27T12:46:25;94448.72;;;6.78;47.60
21182;BME280;10749;46.296;7.524;2023-01-27T12:48:54;94438.78;;;6.96;47.75
21182;BME280;10749;46.296;7.524;2023-01-27T12:51:37;94440.09;;;7.16;47.45
21182;BME280;10749;46.296;7.524;2023-01-27T12:54:32;94441.38;;;7.28;47.09
21182;BME280;10749;46.296;7.524;2023-01-27T12:57:03;94433.69;;;7.58;46.84
21182;BME280;10749;46.296;7.524;2023-01-27T12:59:29;94444.75;;;7.84;46.99
21182;BME280;10749;46.296;7.524;2023-01-27T13:01:58;94443.06;;;7.91;46.94
21182;BME280;10749;46.296;7.524;2023-01-27T13:04:24;94438.72;;;8.06;46.83
21182;BME280;10749;46.296;7.524;2023-01-27T13:12:10;94445.84;;;7.98;46.08
21182;BME280;10749;46.296;7.524;2023-01-27T13:14:39;94450.94;;;7.99;45.70
21182;BME280;10749;46.296;7.524;2023-01-27T13:17:35;94452.44;;;7.94;45.59
21182;BME280;10749;46.296;7.524;2023-01-27T13:21:02;94451.56;;;8.01;45.48
21182;BME280;10749;46.296;7.524;2023-01-27T13:23:20;94449.06;;;7.77;45.18
21182;BME280;10749;46.296;7.524;2023-01-27T13:28:17;94457.09;;;7.53;44.77
21182;BME280;10749;46.296;7.524;2023-01-27T13:30:49;94447.41;;;7.45;44.63
21182;BME280;10749;46.296;7.524;2023-01-27T13:33:44;94458.78;;;7.29;44.76
21182;BME280;10749;46.296;7.524;2023-01-27T13:39:18;94461.84;;;6.78;45.03
21182;BME280;10749;46.296;7.524;2023-01-27T13:44:37;94463.78;;;7.00;45.14
21182;BME280;10749;46.296;7.524;2023-01-27T13:47:08;94453.28;;;6.92;44.84
21182;BME280;10749;46.296;7.524;2023-01-27T13:50:01;94461.50;;;6.89;44.81
21182;BME280;10749;46.296;7.524;2023-01-27T13:52:29;94460.66;;;7.05;44.33
21182;BME280;10749;46.296;7.524;2023-01-27T13:54:54;94458.22;;;7.03;44.42
21182;BME280;10749;46.296;7.524;2023-01-27T14:00:02;94463.16;;;6.82;44.27
21182;BME280;10749;46.296;7.524;2023-01-27T14:03:06;94463.66;;;6.61;43.96
21182;BME280;10749;46.296;7.524;2023-01-27T14:06:03;94472.84;;;6.25;44.11
21182;BME280;10749;46.296;7.524;2023-01-27T14:08:48;94480.84;;;5.99;44.00
21182;BME280;10749;46.296;7.524;2023-01-27T14:14:01;94481.38;;;5.69;43.70
21182;BME280;10749;46.296;7.524;2023-01-27T14:19:43;94474.44;;;5.59;43.74
21182;BME280;10749;46.296;7.524;2023-01-27T14:27:29;94478.41;;;4.96;44.35
21182;BME280;10749;46.296;7.524;2023-01-27T14:35:46;94483.69;;;4.78;44.56
21182;BME280;10749;46.296;7.524;2023-01-27T14:41:03;94495.41;;;4.92;44.49
21182;BME280;10749;46.296;7.524;2023-01-27T14:43:40;94486.81;;;5.07;44.63
21182;BME280;10749;46.296;7.524;2023-01-27T14:49:25;94496.13;;;5.02;44.86
21182;BME280;10749;46.296;7.524;2023-01-27T14:51:58;94498.56;;;5.21;44.50